createdAt,value
2017-08-20T00:00:05.818Z,100901.41
2017-08-20T00:02:33.266Z,100904.72
2017-08-20T00:05:00.718Z,100901.09
2017-08-20T00:07:28.143Z,100898.83
2017-08-20T00:09:55.554Z,100898.71
2017-08-20T00:12:22.950Z,100898.20
2017-08-20T00:14:50.345Z,100900.16
2017-08-20T00:17:17.784Z,100897.07
2017-08-20T00:19:45.182Z,100894.07
2017-08-20T00:22:12.587Z,100889.53
2017-08-20T00:24:40.106Z,100889.62
2017-08-20T00:27:07.503Z,100889.85
2017-08-20T00:29:34.902Z,100893.75
2017-08-20T00:32:02.451Z,100901.07
2017-08-20T00:34:29.846Z,100903.98
2017-08-20T00:36:57.237Z,100907.28
2017-08-20T00:39:24.687Z,100900.59
2017-08-20T00:41:52.087Z,100908.52
2017-08-20T00:44:19.495Z,100907.81
2017-08-20T00:46:47.574Z,100902.59
2017-08-20T00:49:14.979Z,100904.36
2017-08-20T00:51:42.383Z,100900.86
2017-08-20T00:54:09.795Z,100899.22
2017-08-20T00:56:37.198Z,100904.50
2017-08-20T00:59:04.594Z,100899.88
2017-08-20T01:01:32.150Z,100897.20
2017-08-20T01:03:59.550Z,100895.14
2017-08-20T01:06:26.963Z,100902.03
2017-08-20T01:08:54.520Z,100899.67
2017-08-20T01:11:21.915Z,100897.72
2017-08-20T01:13:49.347Z,100906.98
2017-08-20T01:16:16.751Z,100903.20
2017-08-20T01:18:44.162Z,100901.77
2017-08-20T01:21:11.558Z,100905.17
2017-08-20T01:23:38.978Z,100913.09
2017-08-20T01:26:06.378Z,100911.68
2017-08-20T01:28:33.787Z,100913.64
2017-08-20T01:31:01.203Z,100907.87
2017-08-20T01:33:28.601Z,100912.51
2017-08-20T01:35:55.994Z,100907.08
2017-08-20T01:38:23.498Z,100917.69
2017-08-20T01:40:50.894Z,100916.77
2017-08-20T01:43:18.305Z,100919.75
2017-08-20T01:45:45.718Z,100920.25
2017-08-20T01:48:13.123Z,100920.47
2017-08-20T01:50:40.526Z,100925.28
2017-08-20T01:53:07.930Z,100914.06
2017-08-20T01:55:35.322Z,100913.95
2017-08-20T01:58:02.718Z,100915.70
2017-08-20T02:00:42.107Z,100918.37
2017-08-20T02:03:09.510Z,100921.97
2017-08-20T02:05:37.145Z,100923.90
2017-08-20T02:08:04.677Z,100930.47
2017-08-20T02:10:32.054Z,100932.72
2017-08-20T02:12:59.466Z,100934.98
2017-08-20T02:15:26.894Z,100939.90
2017-08-20T02:17:54.306Z,100929.36
2017-08-20T02:20:21.707Z,100928.00
2017-08-20T02:22:49.161Z,100927.97
2017-08-20T02:25:16.558Z,100935.16
2017-08-20T02:27:43.965Z,100934.70
2017-08-20T02:30:11.386Z,100940.69
2017-08-20T02:32:38.812Z,100942.09
2017-08-20T02:35:06.208Z,100947.67
2017-08-20T02:37:33.622Z,100944.75
2017-08-20T02:40:01.049Z,100944.44
2017-08-20T02:42:28.450Z,100940.72
2017-08-20T02:44:55.851Z,100949.89
2017-08-20T02:47:23.243Z,100955.63
2017-08-20T02:49:50.642Z,100945.30
2017-08-20T02:52:18.146Z,100948.70
2017-08-20T02:54:45.541Z,100956.01
2017-08-20T02:57:12.938Z,100954.19
2017-08-20T02:59:40.347Z,100957.28
2017-08-20T03:02:07.742Z,100954.69
2017-08-20T03:04:35.138Z,100952.61
2017-08-20T03:07:02.543Z,100954.97
2017-08-20T03:09:29.944Z,100955.20
2017-08-20T03:11:57.340Z,100957.78
2017-08-20T03:14:24.894Z,100961.30
2017-08-20T03:16:52.291Z,100967.95
2017-08-20T03:19:19.711Z,100963.75
2017-08-20T03:21:47.218Z,100961.99
2017-08-20T03:24:14.618Z,100971.17
2017-08-20T03:26:42.018Z,100963.55
2017-08-20T03:29:09.473Z,100965.70
2017-08-20T03:31:36.874Z,100963.33
2017-08-20T03:34:04.298Z,100967.25
2017-08-20T03:36:31.903Z,100968.81
2017-08-20T03:38:59.298Z,100969.25
2017-08-20T03:41:26.699Z,100972.87
2017-08-20T03:43:54.110Z,100970.32
2017-08-20T03:46:21.507Z,100971.05
2017-08-20T03:48:48.898Z,100961.44
2017-08-20T03:51:16.402Z,100971.24
2017-08-20T03:53:43.814Z,100971.44
2017-08-20T03:56:11.211Z,100971.38
2017-08-20T03:58:38.638Z,100970.45
2017-08-20T04:01:06.033Z,100971.96
2017-08-20T04:03:33.426Z,100971.67
2017-08-20T04:06:00.842Z,100972.50
2017-08-20T04:08:28.242Z,100975.30
2017-08-20T04:10:55.642Z,100972.72
2017-08-20T04:13:23.091Z,100975.81
2017-08-20T04:15:50.487Z,100971.24
2017-08-20T04:18:17.883Z,100975.36
2017-08-20T04:20:45.326Z,100981.53
2017-08-20T04:23:12.731Z,100980.30
2017-08-20T04:25:40.127Z,100987.59
2017-08-20T04:28:07.537Z,100991.18
2017-08-20T04:30:34.959Z,100994.38
2017-08-20T04:33:02.383Z,100997.67
2017-08-20T04:35:30.174Z,100990.92
2017-08-20T04:37:57.578Z,100997.22
2017-08-20T04:40:24.982Z,101001.52
2017-08-20T04:42:52.390Z,101003.70
2017-08-20T04:45:19.790Z,101003.58
2017-08-20T04:47:47.186Z,101004.48
2017-08-20T04:50:14.602Z,101005.81
2017-08-20T04:52:42.010Z,101008.89
2017-08-20T04:55:09.410Z,101009.09
2017-08-20T04:57:36.915Z,101013.83
2017-08-20T05:00:04.315Z,101018.77
2017-08-20T05:02:31.720Z,101022.78
2017-08-20T05:04:59.138Z,101021.73
2017-08-20T05:07:26.534Z,101022.86
2017-08-20T05:09:53.946Z,101024.17
2017-08-20T05:12:21.714Z,101024.75
2017-08-20T05:14:49.122Z,101024.95
2017-08-20T05:17:16.515Z,101025.91
2017-08-20T05:19:44.022Z,101023.83
2017-08-20T05:22:11.418Z,101023.48
2017-08-20T05:24:38.810Z,101026.47
2017-08-20T05:27:06.362Z,101029.66
2017-08-20T05:29:33.762Z,101033.05
2017-08-20T05:32:01.163Z,101028.59
2017-08-20T05:34:28.723Z,101029.53
2017-08-20T05:36:56.119Z,101029.95
2017-08-20T05:39:23.522Z,101032.43
2017-08-20T05:41:50.926Z,101033.48
2017-08-20T05:44:18.322Z,101033.26
2017-08-20T05:46:45.719Z,101037.22
2017-08-20T05:49:13.266Z,101037.61
2017-08-20T05:51:40.663Z,101038.92
2017-08-20T05:54:08.058Z,101047.15
2017-08-20T05:56:35.610Z,101046.20
2017-08-20T05:59:03.004Z,101050.44
2017-08-20T06:01:30.401Z,101048.95
2017-08-20T06:03:58.139Z,101053.55
2017-08-20T06:06:25.543Z,101054.47
2017-08-20T06:08:52.947Z,101051.67
2017-08-20T06:11:20.495Z,101052.30
2017-08-20T06:13:47.890Z,101057.44
2017-08-20T06:16:15.291Z,101058.73
2017-08-20T06:18:42.859Z,101060.08
2017-08-20T06:21:10.299Z,101067.24
2017-08-20T06:23:37.689Z,101063.61
2017-08-20T06:26:05.098Z,101065.05
2017-08-20T06:28:32.490Z,101066.77
2017-08-20T06:30:59.882Z,101069.07
2017-08-20T06:33:27.291Z,101065.64
2017-08-20T06:35:54.687Z,101071.34
2017-08-20T06:38:22.077Z,101075.88
2017-08-20T06:40:49.538Z,101080.84
2017-08-20T06:43:16.942Z,101083.76
2017-08-20T06:45:44.350Z,101091.09
2017-08-20T06:48:11.822Z,101080.05
2017-08-20T06:50:39.222Z,101086.17
2017-08-20T06:53:06.622Z,101085.59
2017-08-20T06:55:34.191Z,101086.75
2017-08-20T06:58:01.587Z,101090.49
2017-08-20T07:00:28.984Z,101094.19
2017-08-20T07:02:56.442Z,101097.16
2017-08-20T07:05:23.850Z,101098.42
2017-08-20T07:07:51.268Z,101109.66
2017-08-20T07:10:18.694Z,101104.38
2017-08-20T07:12:46.107Z,101116.03
2017-08-20T07:15:13.570Z,101114.61
2017-08-20T07:17:41.088Z,101113.14
2017-08-20T07:20:08.488Z,101121.48
2017-08-20T07:22:35.895Z,101119.12
2017-08-20T07:25:03.450Z,101125.89
2017-08-20T07:27:30.869Z,101126.31
2017-08-20T07:29:58.271Z,101120.40
2017-08-20T07:32:25.698Z,101135.30
2017-08-20T07:34:53.093Z,101138.78
2017-08-20T07:37:20.485Z,101139.23
2017-08-20T07:39:48.421Z,101145.20
2017-08-20T07:42:15.818Z,101144.88
2017-08-20T07:44:43.226Z,101137.45
2017-08-20T07:47:10.747Z,101142.74
2017-08-20T07:49:38.141Z,101142.20
2017-08-20T07:52:05.534Z,101147.88
2017-08-20T07:54:32.954Z,101146.83
2017-08-20T07:57:00.349Z,101156.78
2017-08-20T07:59:27.746Z,101158.42
2017-08-20T08:01:55.163Z,101160.06
2017-08-20T08:04:22.554Z,101158.91
2017-08-20T08:06:49.952Z,101168.42
2017-08-20T08:09:17.366Z,101162.90
2017-08-20T08:11:44.761Z,101166.14
2017-08-20T08:14:12.160Z,101163.63
2017-08-20T08:16:39.665Z,101164.76
2017-08-20T08:19:07.058Z,101169.80
2017-08-20T08:21:34.454Z,101169.02
2017-08-20T08:24:01.867Z,101163.28
2017-08-20T08:26:29.264Z,101168.58
2017-08-20T08:28:56.659Z,101167.45
2017-08-20T08:31:24.210Z,101169.28
2017-08-20T08:33:51.630Z,101173.84
2017-08-20T08:36:19.033Z,101169.58
2017-08-20T08:38:46.612Z,101169.13
2017-08-20T08:41:14.006Z,101175.24
2017-08-20T08:43:41.399Z,101172.05
2017-08-20T08:46:08.968Z,101172.77
2017-08-20T08:48:36.356Z,101167.08
2017-08-20T08:51:03.754Z,101170.09
2017-08-20T08:53:31.351Z,101167.84
2017-08-20T08:55:58.743Z,101170.59
2017-08-20T08:58:26.193Z,101176.36
2017-08-20T09:00:53.602Z,101177.47
2017-08-20T09:03:20.994Z,101187.55
2017-08-20T09:05:48.395Z,101183.25
2017-08-20T09:08:15.947Z,101181.98
2017-08-20T09:10:43.334Z,101179.59
2017-08-20T09:13:10.745Z,101180.85
2017-08-20T09:15:38.149Z,101184.41
2017-08-20T09:18:05.561Z,101183.64
2017-08-20T09:20:32.955Z,101190.92
2017-08-20T09:23:00.698Z,101191.22
2017-08-20T09:25:28.090Z,101189.44
2017-08-20T09:27:55.490Z,101185.89
2017-08-20T09:30:23.011Z,101186.77
2017-08-20T09:32:50.411Z,101182.16
2017-08-20T09:35:17.815Z,101184.91
2017-08-20T09:37:45.234Z,101180.69
2017-08-20T09:40:12.627Z,101177.48
2017-08-20T09:42:40.030Z,101180.42
2017-08-20T09:45:07.595Z,101177.91
2017-08-20T09:47:35.404Z,101178.97
2017-08-20T09:50:02.798Z,101176.00
2017-08-20T09:52:30.355Z,101175.00
2017-08-20T09:54:57.750Z,101165.88
2017-08-20T09:57:25.146Z,101164.97
2017-08-20T09:59:52.559Z,101164.91
2017-08-20T10:02:19.955Z,101161.62
2017-08-20T10:04:47.358Z,101163.15
2017-08-20T10:07:14.914Z,101162.20
2017-08-20T10:09:44.099Z,101153.20
2017-08-20T10:12:11.499Z,101158.36
2017-08-20T10:14:38.946Z,101155.97
2017-08-20T10:17:06.358Z,101157.34
2017-08-20T10:19:33.747Z,101161.45
2017-08-20T10:22:01.294Z,101171.25
2017-08-20T10:24:28.690Z,101162.16
2017-08-20T10:26:56.093Z,101171.61
2017-08-20T10:29:23.599Z,101166.11
2017-08-20T10:31:51.003Z,101168.94
2017-08-20T10:34:18.411Z,101165.30
2017-08-20T10:36:46.219Z,101168.45
2017-08-20T10:39:13.611Z,101160.39
2017-08-20T10:41:41.009Z,101157.45
2017-08-20T10:44:08.415Z,101159.97
2017-08-20T10:46:35.801Z,101155.31
2017-08-20T10:49:03.191Z,101147.59
2017-08-20T10:51:30.690Z,101152.37
2017-08-20T10:53:58.079Z,101157.14
2017-08-20T10:56:25.474Z,101156.36
2017-08-20T10:58:53.021Z,101150.55
2017-08-20T11:01:20.414Z,101162.78
2017-08-20T11:03:47.810Z,101157.81
2017-08-20T11:06:15.219Z,101159.00
2017-08-20T11:08:42.617Z,101158.53
2017-08-20T11:11:10.015Z,101162.41
2017-08-20T11:13:37.770Z,101162.28
2017-08-20T11:16:05.158Z,101167.66
2017-08-20T11:18:32.560Z,101159.69
2017-08-20T11:20:59.962Z,101179.78
2017-08-20T11:23:27.354Z,101164.53
2017-08-20T11:25:54.751Z,101172.30
2017-08-20T11:28:22.170Z,101180.10
2017-08-20T11:30:49.558Z,101180.59
2017-08-20T11:33:16.955Z,101177.13
2017-08-20T11:35:44.456Z,101174.98
2017-08-20T11:38:11.841Z,101179.56
2017-08-20T11:40:39.232Z,101171.56
2017-08-20T11:43:06.635Z,101174.98
2017-08-20T11:45:34.023Z,101184.84
2017-08-20T11:48:01.418Z,101178.89
2017-08-20T11:50:28.822Z,101180.73
2017-08-20T11:52:56.219Z,101182.63
2017-08-20T11:55:23.614Z,101171.45
2017-08-20T11:57:51.158Z,101177.41
2017-08-20T12:00:18.563Z,101179.06
2017-08-20T12:02:45.954Z,101180.73
2017-08-20T12:05:13.367Z,101183.28
2017-08-20T12:07:40.758Z,101176.53
2017-08-20T12:10:08.154Z,101187.12
2017-08-20T12:12:35.658Z,101194.12
2017-08-20T12:15:03.047Z,101194.08
2017-08-20T12:17:30.446Z,101198.47
2017-08-20T12:19:57.862Z,101194.97
2017-08-20T12:22:25.258Z,101201.91
2017-08-20T12:24:52.650Z,101202.97
2017-08-20T12:27:20.194Z,101213.19
2017-08-20T12:29:47.589Z,101207.83
2017-08-20T12:32:14.987Z,101199.09
2017-08-20T12:34:42.405Z,101203.87
2017-08-20T12:37:09.798Z,101202.36
2017-08-20T12:39:37.194Z,101203.27
2017-08-20T12:42:04.691Z,101199.73
2017-08-20T12:44:32.082Z,101201.16
2017-08-20T12:46:59.482Z,101201.84
2017-08-20T12:49:27.375Z,101196.66
2017-08-20T12:51:54.771Z,101198.61
2017-08-20T12:54:22.172Z,101209.73
2017-08-20T12:56:49.719Z,101210.47
2017-08-20T12:59:17.110Z,101199.97
2017-08-20T13:01:44.512Z,101196.18
2017-08-20T13:04:11.951Z,101204.06
2017-08-20T13:06:39.346Z,101186.11
2017-08-20T13:09:06.739Z,101185.14
2017-08-20T13:11:34.137Z,101193.22
2017-08-20T13:14:01.608Z,101186.53
2017-08-20T13:16:29.018Z,101187.64
2017-08-20T13:18:56.832Z,101182.60
2017-08-20T13:21:24.231Z,101173.34
2017-08-20T13:23:51.625Z,101177.32
2017-08-20T13:26:19.438Z,101175.37
2017-08-20T13:28:46.830Z,101179.68
2017-08-20T13:31:14.226Z,101169.56
2017-08-20T13:33:41.790Z,101171.96
2017-08-20T13:36:09.186Z,101185.77
2017-08-20T13:38:36.581Z,101180.47
2017-08-20T13:41:04.098Z,101183.88
2017-08-20T13:43:31.509Z,101184.09
2017-08-20T13:45:58.902Z,101183.06
2017-08-20T13:48:26.326Z,101180.66
2017-08-20T13:50:53.723Z,101181.25
2017-08-20T13:53:21.127Z,101179.09
2017-08-20T13:55:48.670Z,101182.95
2017-08-20T13:58:16.067Z,101187.13
2017-08-20T14:00:43.462Z,101183.50
2017-08-20T14:03:10.871Z,101183.89
2017-08-20T14:05:38.271Z,101186.13
2017-08-20T14:08:05.672Z,101183.75
2017-08-20T14:10:33.223Z,101186.02
2017-08-20T14:13:00.624Z,101186.59
2017-08-20T14:15:28.026Z,101192.94
2017-08-20T14:17:55.574Z,101187.05
2017-08-20T14:20:22.978Z,101190.56
2017-08-20T14:22:50.386Z,101197.67
2017-08-20T14:25:17.935Z,101189.68
2017-08-20T14:27:45.330Z,101190.53
2017-08-20T14:30:13.562Z,101190.48
2017-08-20T14:32:41.073Z,101193.78
2017-08-20T14:35:08.475Z,101192.87
2017-08-20T14:37:35.866Z,101197.62
2017-08-20T14:40:03.449Z,101196.84
2017-08-20T14:42:30.836Z,101194.60
2017-08-20T14:44:58.220Z,101201.69
2017-08-20T14:47:25.618Z,101196.00
2017-08-20T14:49:53.014Z,101194.04
2017-08-20T14:52:20.407Z,101192.13
2017-08-20T14:54:47.959Z,101195.91
2017-08-20T14:57:15.354Z,101191.94
2017-08-20T14:59:42.749Z,101184.78
2017-08-20T15:02:10.195Z,101182.92
2017-08-20T15:04:37.600Z,101186.05
2017-08-20T15:07:04.990Z,101181.00
2017-08-20T15:09:32.550Z,101180.16
2017-08-20T15:11:59.935Z,101183.64
2017-08-20T15:14:27.338Z,101173.47
2017-08-20T15:16:54.742Z,101175.72
2017-08-20T15:19:22.134Z,101177.95
2017-08-20T15:21:49.530Z,101181.52
2017-08-20T15:24:17.076Z,101176.23
2017-08-20T15:26:44.467Z,101184.38
2017-08-20T15:29:11.858Z,101190.53
2017-08-20T15:31:39.403Z,101185.95
2017-08-20T15:34:06.795Z,101191.28
2017-08-20T15:36:34.191Z,101188.70
2017-08-20T15:39:01.610Z,101186.05
2017-08-20T15:41:29.002Z,101187.77
2017-08-20T15:43:56.398Z,101189.73
2017-08-20T15:46:23.950Z,101191.47
2017-08-20T15:48:51.358Z,101191.42
2017-08-20T15:51:18.738Z,101194.48
2017-08-20T15:53:46.246Z,101191.70
2017-08-20T15:56:13.660Z,101188.88
2017-08-20T15:58:41.046Z,101193.59
2017-08-20T16:01:08.850Z,101189.45
2017-08-20T16:03:36.245Z,101175.33
2017-08-20T16:06:03.634Z,101184.18
2017-08-20T16:08:31.182Z,101187.92
2017-08-20T16:10:58.584Z,101188.77
2017-08-20T16:13:25.976Z,101188.09
2017-08-20T16:15:53.518Z,101180.33
2017-08-20T16:18:20.919Z,101182.15
2017-08-20T16:20:48.312Z,101185.19
2017-08-20T16:23:15.710Z,101181.47
2017-08-20T16:25:43.103Z,101177.45
2017-08-20T16:28:10.495Z,101184.60
2017-08-20T16:30:37.907Z,101181.14
2017-08-20T16:33:05.298Z,101176.61
2017-08-20T16:35:32.690Z,101183.56
2017-08-20T16:38:00.502Z,101180.30
2017-08-20T16:40:27.899Z,101181.66
2017-08-20T16:42:55.294Z,101185.21
2017-08-20T16:45:22.702Z,101183.39
2017-08-20T16:47:50.099Z,101177.92
2017-08-20T16:50:17.496Z,101173.76
2017-08-20T16:52:44.902Z,101179.92
2017-08-20T16:55:12.304Z,101174.32
2017-08-20T16:57:39.698Z,101173.96
2017-08-20T17:00:07.118Z,101174.05
2017-08-20T17:02:34.528Z,101171.05
2017-08-20T17:05:01.943Z,101161.06
2017-08-20T17:07:29.404Z,101160.68
2017-08-20T17:09:56.849Z,101158.48
2017-08-20T17:12:24.254Z,101156.26
2017-08-20T17:14:51.802Z,101157.96
2017-08-20T17:17:19.254Z,101151.94
2017-08-20T17:19:46.665Z,101145.37
2017-08-20T17:22:14.531Z,101156.25
2017-08-20T17:24:41.926Z,101156.98
2017-08-20T17:27:09.322Z,101160.89
2017-08-20T17:29:37.110Z,101159.03
2017-08-20T17:32:04.508Z,101151.67
2017-08-20T17:34:31.906Z,101152.76
2017-08-20T17:36:59.455Z,101152.61
2017-08-20T17:39:26.858Z,101146.34
2017-08-20T17:41:54.271Z,101151.77
2017-08-20T17:44:21.683Z,101158.10
2017-08-20T17:46:49.094Z,101159.03
2017-08-20T17:49:16.499Z,101158.80
2017-08-20T17:51:43.905Z,101160.99
2017-08-20T17:54:11.303Z,101151.20
2017-08-20T17:56:38.698Z,101154.78
2017-08-20T17:59:06.466Z,101152.17
2017-08-20T18:01:33.874Z,101159.22
2017-08-20T18:04:01.283Z,101162.08
2017-08-20T18:06:28.818Z,101167.53
2017-08-20T18:08:56.225Z,101165.67
2017-08-20T18:11:23.619Z,101164.55
2017-08-20T18:13:51.041Z,101168.32
2017-08-20T18:16:18.427Z,101172.25
2017-08-20T18:18:45.832Z,101172.45
2017-08-20T18:21:13.389Z,101167.12
2017-08-20T18:23:40.782Z,101170.67
2017-08-20T18:26:08.182Z,101170.96
2017-08-20T18:28:35.622Z,101188.27
2017-08-20T18:31:03.038Z,101183.34
2017-08-20T18:33:30.426Z,101190.92
2017-08-20T18:35:57.982Z,101190.92
2017-08-20T18:38:25.385Z,101198.73
2017-08-20T18:40:52.779Z,101195.77
2017-08-20T18:43:20.330Z,101201.02
2017-08-20T18:45:47.722Z,101202.21
2017-08-20T18:48:15.118Z,101204.03
2017-08-20T18:50:42.970Z,101204.19
2017-08-20T18:53:10.387Z,101198.47
2017-08-20T18:55:38.402Z,101206.03
2017-08-20T18:58:05.892Z,101216.02
2017-08-20T19:00:33.292Z,101215.02
2017-08-20T19:03:00.686Z,101213.95
2017-08-20T19:05:28.402Z,101220.75
2017-08-20T19:07:55.811Z,101216.75
2017-08-20T19:10:23.210Z,101217.86
2017-08-20T19:12:50.766Z,101215.85
2017-08-20T19:15:18.166Z,101208.97
2017-08-20T19:17:45.569Z,101220.20
2017-08-20T19:20:12.987Z,101225.34
2017-08-20T19:22:40.383Z,101226.45
2017-08-20T19:25:07.806Z,101233.16
2017-08-20T19:27:35.711Z,101234.17
2017-08-20T19:30:03.098Z,101233.58
2017-08-20T19:32:30.498Z,101234.52
2017-08-20T19:34:57.918Z,101243.44
2017-08-20T19:37:25.323Z,101240.83
2017-08-20T19:39:52.710Z,101241.74
2017-08-20T19:42:20.131Z,101252.35
2017-08-20T19:44:47.541Z,101252.92
2017-08-20T19:47:14.938Z,101255.75
2017-08-20T19:49:42.378Z,101266.64
2017-08-20T19:52:09.774Z,101261.83
2017-08-20T19:54:37.179Z,101256.22
2017-08-20T19:57:04.964Z,101250.91
2017-08-20T19:59:32.554Z,101256.54
2017-08-20T20:01:59.964Z,101250.72
2017-08-20T20:04:27.475Z,101255.67
2017-08-20T20:06:54.870Z,101252.90
2017-08-20T20:09:22.267Z,101258.49
2017-08-20T20:11:49.822Z,101247.97
2017-08-20T20:14:17.218Z,101254.19
2017-08-20T20:16:44.622Z,101255.12
2017-08-20T20:19:12.136Z,101252.42
2017-08-20T20:21:39.526Z,101255.56
2017-08-20T20:24:06.922Z,101243.79
2017-08-20T20:26:34.862Z,101248.62
2017-08-20T20:29:02.259Z,101253.95
2017-08-20T20:31:29.655Z,101251.32
2017-08-20T20:33:57.064Z,101245.91
2017-08-20T20:36:24.469Z,101253.62
2017-08-20T20:38:51.862Z,101252.15
2017-08-20T20:41:19.282Z,101245.16
2017-08-20T20:43:46.674Z,101238.22
2017-08-20T20:46:14.083Z,101240.52
2017-08-20T20:48:41.494Z,101243.58
2017-08-20T20:51:08.896Z,101242.54
2017-08-20T20:53:36.291Z,101237.52
2017-08-20T20:56:03.714Z,101242.45
2017-08-20T20:58:31.119Z,101256.98
2017-08-20T21:00:58.511Z,101253.17
2017-08-20T21:03:26.314Z,101252.48
2017-08-20T21:05:53.710Z,101264.10
2017-08-20T21:08:21.105Z,101261.28
2017-08-20T21:10:48.520Z,101262.83
2017-08-20T21:13:15.914Z,101263.16
2017-08-20T21:15:43.312Z,101258.41
2017-08-20T21:18:10.718Z,101252.55
2017-08-20T21:20:38.127Z,101266.09
2017-08-20T21:23:05.522Z,101252.02
2017-08-20T21:25:32.946Z,101240.87
2017-08-20T21:28:00.347Z,101242.42
2017-08-20T21:30:27.743Z,101246.29
2017-08-20T21:32:55.166Z,101242.38
2017-08-20T21:35:22.566Z,101250.22
2017-08-20T21:37:49.958Z,101238.13
2017-08-20T21:40:17.374Z,101250.97
2017-08-20T21:42:44.774Z,101249.32
2017-08-20T21:45:12.171Z,101242.00
2017-08-20T21:47:39.672Z,101244.38
2017-08-20T21:50:07.073Z,101246.22
2017-08-20T21:52:34.490Z,101248.28
2017-08-20T21:55:02.222Z,101248.05
2017-08-20T21:57:29.619Z,101238.13
2017-08-20T21:59:57.016Z,101232.83
2017-08-20T22:02:24.566Z,101227.02
2017-08-20T22:04:51.962Z,101233.97
2017-08-20T22:07:19.360Z,101238.92
2017-08-20T22:09:46.876Z,101225.22
2017-08-20T22:12:14.279Z,101236.79
2017-08-20T22:14:41.682Z,101245.25
2017-08-20T22:17:09.226Z,101252.88
2017-08-20T22:19:36.622Z,101258.41
2017-08-20T22:22:04.018Z,101253.54
2017-08-20T22:24:31.419Z,101254.65
2017-08-20T22:26:58.833Z,101249.98
2017-08-20T22:29:26.222Z,101246.44
2017-08-20T22:31:53.967Z,101246.14
2017-08-20T22:34:21.358Z,101254.50
2017-08-20T22:36:49.052Z,101253.16
2017-08-20T22:39:16.603Z,101253.38
2017-08-20T22:41:44.006Z,101249.84
2017-08-20T22:44:11.403Z,101242.73
2017-08-20T22:46:38.807Z,101234.67
2017-08-20T22:49:06.202Z,101239.81
2017-08-20T22:51:33.612Z,101246.55
2017-08-20T22:54:01.010Z,101240.44
2017-08-20T22:56:28.410Z,101241.48
2017-08-20T22:58:55.811Z,101233.83
2017-08-20T23:01:23.256Z,101232.06
2017-08-20T23:03:50.662Z,101230.13
2017-08-20T23:06:18.059Z,101231.80
2017-08-20T23:08:45.614Z,101228.80
2017-08-20T23:11:13.020Z,101229.64
2017-08-20T23:13:40.410Z,101231.82
2017-08-20T23:16:07.833Z,101218.67
2017-08-20T23:18:35.235Z,101219.39
2017-08-20T23:21:02.632Z,101237.41
2017-08-20T23:23:30.182Z,101238.02
2017-08-20T23:25:57.597Z,101232.81
2017-08-20T23:28:24.986Z,101237.75
2017-08-20T23:30:52.391Z,101231.02
2017-08-20T23:33:19.787Z,101226.34
2017-08-20T23:35:47.184Z,101219.77
2017-08-20T23:38:14.623Z,101221.53
2017-08-20T23:40:42.018Z,101218.03
2017-08-20T23:43:09.414Z,101211.09
2017-08-20T23:45:36.972Z,101217.64
2017-08-20T23:48:04.362Z,101206.77
2017-08-20T23:50:31.759Z,101211.88
2017-08-20T23:52:59.194Z,101219.46
2017-08-20T23:55:26.586Z,101213.99
2017-08-20T23:57:53.986Z,101219.91
